createdAt,value
2018-06-08T00:01:09.746Z,101161.41
2018-06-08T00:03:38.226Z,101156.59
2018-06-08T00:06:06.764Z,101157.38
2018-06-08T00:08:35.332Z,101153.84
2018-06-08T00:11:03.811Z,101156.23
2018-06-08T00:13:32.456Z,101157.92
2018-06-08T00:16:00.977Z,101161.08
2018-06-08T00:18:29.836Z,101157.36
2018-06-08T00:20:58.566Z,101167.06
2018-06-08T00:23:26.942Z,101158.25
2018-06-08T00:25:55.800Z,101161.97
2018-06-08T00:28:24.089Z,101162.89
2018-06-08T00:30:53.065Z,101155.41
2018-06-08T00:33:21.531Z,101155.60
2018-06-08T00:35:49.888Z,101150.59
2018-06-08T00:38:18.440Z,101150.59
2018-06-08T00:40:47.021Z,101153.56
2018-06-08T00:43:15.433Z,101146.43
2018-06-08T00:45:43.913Z,101145.50
2018-06-08T00:48:12.384Z,101142.11
2018-06-08T00:50:41.158Z,101140.24
2018-06-08T00:53:09.829Z,101141.59
2018-06-08T00:55:38.600Z,101140.70
2018-06-08T00:58:07.090Z,101142.77
2018-06-08T01:00:35.592Z,101141.16
2018-06-08T01:03:04.062Z,101133.38
2018-06-08T01:05:32.704Z,101135.74
2018-06-08T01:08:01.439Z,101139.60
2018-06-08T01:10:30.241Z,101139.34
2018-06-08T01:12:58.852Z,101141.59
2018-06-08T01:15:28.399Z,101140.45
2018-06-08T01:17:56.652Z,101140.69
2018-06-08T01:20:25.272Z,101129.00
2018-06-08T01:22:53.974Z,101130.14
2018-06-08T01:25:22.485Z,101132.86
2018-06-08T01:27:51.120Z,101129.91
2018-06-08T01:30:19.387Z,101135.03
2018-06-08T01:32:47.861Z,101138.30
2018-06-08T01:35:16.394Z,101138.19
2018-06-08T01:37:45.194Z,101142.25
2018-06-08T01:40:13.951Z,101141.55
2018-06-08T01:42:42.722Z,101146.22
2018-06-08T01:45:11.458Z,101143.62
2018-06-08T01:47:40.145Z,101143.06
2018-06-08T01:50:08.761Z,101150.29
2018-06-08T01:52:37.536Z,101151.65
2018-06-08T01:55:06.164Z,101145.68
2018-06-08T01:57:34.857Z,101145.47
2018-06-08T02:00:03.593Z,101142.77
2018-06-08T02:02:32.824Z,101145.42
2018-06-08T02:05:01.236Z,101141.66
2018-06-08T02:07:29.811Z,101138.70
2018-06-08T02:09:58.299Z,101133.75
2018-06-08T02:12:27.126Z,101138.03
2018-06-08T02:14:55.603Z,101137.24
2018-06-08T02:17:24.320Z,101142.97
2018-06-08T02:19:53.062Z,101139.64
2018-06-08T02:22:21.620Z,101138.84
2018-06-08T02:24:49.947Z,101139.50
2018-06-08T02:27:18.968Z,101131.36
2018-06-08T02:29:47.426Z,101129.31
2018-06-08T02:32:15.946Z,101128.13
2018-06-08T02:34:44.466Z,101122.50
2018-06-08T02:37:13.492Z,101127.12
2018-06-08T02:39:41.955Z,101132.73
2018-06-08T02:42:10.720Z,101131.15
2018-06-08T02:44:39.697Z,101135.79
2018-06-08T02:47:08.567Z,101132.05
2018-06-08T02:49:37.130Z,101129.48
2018-06-08T02:52:05.683Z,101130.56
2018-06-08T02:54:34.128Z,101122.15
2018-06-08T02:57:02.380Z,101127.93
2018-06-08T02:59:30.879Z,101128.53
2018-06-08T03:01:59.797Z,101124.32
2018-06-08T03:04:28.430Z,101129.08
2018-06-08T03:06:56.996Z,101131.03
2018-06-08T03:09:25.676Z,101134.16
2018-06-08T03:11:54.234Z,101129.33
2018-06-08T03:14:22.628Z,101120.84
2018-06-08T03:16:51.197Z,101119.80
2018-06-08T03:19:19.603Z,101112.58
2018-06-08T03:21:48.412Z,101110.85
2018-06-08T03:24:16.987Z,101115.37
2018-06-08T03:26:45.508Z,101112.63
2018-06-08T03:29:14.048Z,101119.30
2018-06-08T03:31:42.667Z,101126.45
2018-06-08T03:34:11.076Z,101123.25
2018-06-08T03:36:39.464Z,101123.05
2018-06-08T03:39:08.613Z,101117.73
2018-06-08T03:41:37.108Z,101133.73
2018-06-08T03:44:05.712Z,101123.47
2018-06-08T03:46:34.030Z,101131.63
2018-06-08T03:49:02.778Z,101136.35
2018-06-08T03:51:31.180Z,101131.34
2018-06-08T03:53:59.784Z,101136.31
2018-06-08T03:56:28.474Z,101132.30
2018-06-08T03:58:57.090Z,101131.94
2018-06-08T04:01:25.618Z,101139.12
2018-06-08T04:03:54.174Z,101129.67
2018-06-08T04:06:22.551Z,101138.47
2018-06-08T04:08:51.018Z,101126.58
2018-06-08T04:11:19.481Z,101128.78
2018-06-08T04:13:47.960Z,101129.67
2018-06-08T04:16:16.344Z,101127.18
2018-06-08T04:18:45.120Z,101126.83
2018-06-08T04:21:13.847Z,101131.34
2018-06-08T04:23:42.297Z,101123.16
2018-06-08T04:26:10.792Z,101119.58
2018-06-08T04:28:39.163Z,101127.92
2018-06-08T04:31:07.708Z,101128.18
2018-06-08T04:33:35.933Z,101127.73
2018-06-08T04:36:04.767Z,101122.45
2018-06-08T04:38:33.755Z,101121.25
2018-06-08T04:41:02.474Z,101121.59
2018-06-08T04:43:30.860Z,101121.52
2018-06-08T04:45:59.651Z,101136.84
2018-06-08T04:48:28.277Z,101126.62
2018-06-08T04:50:57.157Z,101128.94
2018-06-08T04:53:28.926Z,101134.15
2018-06-08T04:55:57.388Z,101136.36
2018-06-08T04:58:25.880Z,101132.83
2018-06-08T05:00:54.294Z,101130.00
2018-06-08T05:03:22.960Z,101124.20
2018-06-08T05:08:31.445Z,101131.73
2018-06-08T05:11:00.358Z,101131.52
2018-06-08T05:13:28.953Z,101134.25
2018-06-08T05:15:57.519Z,101137.55
2018-06-08T05:18:26.125Z,101139.88
2018-06-08T05:20:54.681Z,101140.41
2018-06-08T05:23:23.154Z,101137.59
2018-06-08T05:25:51.833Z,101135.05
2018-06-08T05:28:20.658Z,101141.88
2018-06-08T05:30:49.270Z,101140.00
2018-06-08T05:33:17.804Z,101138.11
2018-06-08T05:35:46.583Z,101141.53
2018-06-08T05:38:17.879Z,101138.82
2018-06-08T05:40:46.551Z,101142.97
2018-06-08T05:43:14.933Z,101140.26
2018-06-08T05:45:43.609Z,101148.05
2018-06-08T05:48:12.173Z,101142.39
2018-06-08T05:50:40.681Z,101145.17
2018-06-08T05:53:09.284Z,101152.68
2018-06-08T05:55:38.176Z,101155.19
2018-06-08T05:58:07.018Z,101156.09
2018-06-08T06:00:35.680Z,101155.27
2018-06-08T06:03:04.252Z,101155.95
2018-06-08T06:05:32.774Z,101157.61
2018-06-08T06:08:01.397Z,101159.59
2018-06-08T06:10:29.983Z,101160.08
2018-06-08T06:12:58.695Z,101164.83
2018-06-08T06:15:27.920Z,101164.00
2018-06-08T06:17:56.670Z,101174.03
2018-06-08T06:20:25.166Z,101165.02
2018-06-08T06:22:53.779Z,101162.03
2018-06-08T06:25:22.678Z,101168.43
2018-06-08T06:27:51.156Z,101159.34
2018-06-08T06:30:19.845Z,101167.07
2018-06-08T06:32:48.601Z,101171.61
2018-06-08T06:35:18.013Z,101174.37
2018-06-08T06:37:46.729Z,101179.17
2018-06-08T06:40:15.224Z,101181.20
2018-06-08T06:42:44.030Z,101183.11
2018-06-08T06:45:12.533Z,101178.17
2018-06-08T06:47:40.786Z,101182.45
2018-06-08T06:50:09.377Z,101186.53
2018-06-08T06:52:37.969Z,101182.19
2018-06-08T06:55:06.567Z,101179.13
2018-06-08T06:57:35.069Z,101183.73
2018-06-08T07:00:03.825Z,101188.85
2018-06-08T07:02:33.104Z,101188.00
2018-06-08T07:05:01.741Z,101192.21
2018-06-08T07:07:30.189Z,101196.78
2018-06-08T07:09:58.752Z,101192.58
2018-06-08T07:12:27.457Z,101190.52
2018-06-08T07:14:56.077Z,101195.71
2018-06-08T07:17:24.896Z,101185.50
2018-06-08T07:19:53.302Z,101189.55
2018-06-08T07:22:21.966Z,101187.76
2018-06-08T07:24:50.650Z,101189.98
2018-06-08T07:27:19.180Z,101187.41
2018-06-08T07:29:47.884Z,101194.36
2018-06-08T07:32:16.501Z,101194.24
2018-06-08T07:34:45.130Z,101205.84
2018-06-08T07:37:13.510Z,101209.61
2018-06-08T07:39:41.902Z,101209.06
2018-06-08T07:42:10.350Z,101214.09
2018-06-08T07:44:39.204Z,101208.69
2018-06-08T07:47:07.742Z,101213.97
2018-06-08T07:49:36.295Z,101213.48
2018-06-08T07:52:04.846Z,101208.52
2018-06-08T07:54:33.557Z,101211.88
2018-06-08T07:57:02.466Z,101212.42
2018-06-08T07:59:31.614Z,101216.58
2018-06-08T08:02:00.068Z,101219.45
2018-06-08T08:04:28.509Z,101223.74
2018-06-08T08:06:56.873Z,101220.77
2018-06-08T08:09:25.292Z,101230.34
2018-06-08T08:11:53.766Z,101218.75
2018-06-08T08:14:22.306Z,101226.78
2018-06-08T08:16:50.764Z,101231.05
2018-06-08T08:19:19.414Z,101225.26
2018-06-08T08:21:47.775Z,101233.44
2018-06-08T08:24:16.113Z,101232.66
2018-06-08T08:26:44.631Z,101235.03
2018-06-08T08:29:13.436Z,101242.83
2018-06-08T08:31:42.084Z,101242.31
2018-06-08T08:34:10.811Z,101238.94
2018-06-08T08:36:39.353Z,101244.08
2018-06-08T08:39:08.717Z,101239.66
2018-06-08T08:41:37.384Z,101241.13
2018-06-08T08:44:06.239Z,101242.75
2018-06-08T08:46:34.894Z,101245.48
2018-06-08T08:49:03.740Z,101248.34
2018-06-08T08:51:32.735Z,101244.95
2018-06-08T08:54:01.093Z,101248.85
2018-06-08T08:56:29.710Z,101254.13
2018-06-08T08:58:59.672Z,101252.11
2018-06-08T09:01:28.208Z,101258.67
2018-06-08T09:03:56.803Z,101259.70
2018-06-08T09:06:25.816Z,101260.19
2018-06-08T09:08:54.189Z,101262.84
2018-06-08T09:11:23.025Z,101262.47
2018-06-08T09:13:51.676Z,101263.29
2018-06-08T09:16:20.160Z,101257.63
2018-06-08T09:18:48.588Z,101260.03
2018-06-08T09:21:17.122Z,101257.95
2018-06-08T09:23:45.460Z,101259.70
2018-06-08T09:26:13.952Z,101263.06
2018-06-08T09:28:42.548Z,101261.50
2018-06-08T09:31:11.033Z,101264.36
2018-06-08T09:33:39.612Z,101266.95
2018-06-08T09:36:08.668Z,101272.40
2018-06-08T09:38:37.232Z,101270.31
2018-06-08T09:41:05.829Z,101271.09
2018-06-08T09:43:35.414Z,101275.49
2018-06-08T09:46:03.845Z,101272.14
2018-06-08T09:48:32.689Z,101278.11
2018-06-08T09:51:01.160Z,101280.94
2018-06-08T09:53:29.519Z,101281.32
2018-06-08T09:55:58.083Z,101287.03
2018-06-08T09:58:27.585Z,101291.11
2018-06-08T10:00:56.112Z,101292.11
2018-06-08T10:03:24.630Z,101290.95
2018-06-08T10:05:53.323Z,101287.61
2018-06-08T10:08:21.937Z,101284.61
2018-06-08T10:10:50.394Z,101277.50
2018-06-08T10:13:19.065Z,101280.66
2018-06-08T10:15:48.640Z,101270.42
2018-06-08T10:18:17.125Z,101265.91
2018-06-08T10:20:45.945Z,101269.11
2018-06-08T10:23:14.660Z,101272.66
2018-06-08T10:25:43.285Z,101271.23
2018-06-08T10:28:11.803Z,101260.42
2018-06-08T10:30:40.615Z,101253.60
2018-06-08T10:33:09.274Z,101252.95
2018-06-08T10:35:38.037Z,101234.41
2018-06-08T10:38:06.390Z,101227.09
2018-06-08T10:40:35.161Z,101230.61
2018-06-08T10:43:04.732Z,101241.47
2018-06-08T10:45:33.630Z,101243.30
2018-06-08T10:48:02.333Z,101237.13
2018-06-08T10:50:30.775Z,101234.32
2018-06-08T10:52:59.302Z,101229.37
2018-06-08T10:55:27.993Z,101233.78
2018-06-08T10:57:56.370Z,101239.78
2018-06-08T11:00:24.988Z,101241.29
2018-06-08T11:02:53.648Z,101243.94
2018-06-08T11:05:22.096Z,101241.91
2018-06-08T11:07:50.757Z,101238.20
2018-06-08T11:10:19.024Z,101244.23
2018-06-08T11:12:47.504Z,101243.84
2018-06-08T11:15:16.053Z,101243.18
2018-06-08T11:17:44.633Z,101241.83
2018-06-08T11:20:13.135Z,101242.77
2018-06-08T11:22:41.766Z,101243.98
2018-06-08T11:25:10.120Z,101238.81
2018-06-08T11:27:38.597Z,101236.75
2018-06-08T11:30:07.186Z,101242.09
2018-06-08T11:32:35.756Z,101240.28
2018-06-08T11:35:04.250Z,101240.37
2018-06-08T11:37:32.928Z,101245.61
2018-06-08T11:40:01.588Z,101245.65
2018-06-08T11:42:30.412Z,101245.73
2018-06-08T11:44:58.989Z,101239.55
2018-06-08T11:47:27.673Z,101247.94
2018-06-08T11:49:56.173Z,101239.49
2018-06-08T11:52:24.736Z,101246.50
2018-06-08T11:54:53.556Z,101253.13
2018-06-08T11:57:22.206Z,101244.48
2018-06-08T11:59:51.543Z,101239.92
2018-06-08T12:02:20.058Z,101239.77
2018-06-08T12:04:48.545Z,101235.41
2018-06-08T12:07:21.878Z,101228.88
2018-06-08T12:09:50.339Z,101232.38
2018-06-08T12:12:19.078Z,101230.08
2018-06-08T12:14:47.408Z,101231.94
2018-06-08T12:17:15.873Z,101224.55
2018-06-08T12:19:44.445Z,101227.29
2018-06-08T12:22:12.945Z,101228.03
2018-06-08T12:24:41.610Z,101217.30
2018-06-08T12:27:10.009Z,101215.47
2018-06-08T12:29:38.554Z,101211.81
2018-06-08T12:32:06.848Z,101201.19
2018-06-08T12:34:35.324Z,101200.03
2018-06-08T12:37:04.152Z,101193.72
2018-06-08T12:39:33.828Z,101193.00
2018-06-08T12:42:02.345Z,101188.42
2018-06-08T12:44:30.966Z,101179.61
2018-06-08T12:46:59.553Z,101178.05
2018-06-08T12:49:28.466Z,101177.41
2018-06-08T12:51:57.125Z,101181.19
2018-06-08T12:54:25.569Z,101182.06
2018-06-08T12:56:54.532Z,101175.94
2018-06-08T12:59:22.931Z,101187.23
2018-06-08T13:01:51.460Z,101184.82
2018-06-08T13:04:20.000Z,101180.98
2018-06-08T13:06:48.638Z,101178.03
2018-06-08T13:09:17.054Z,101169.88
2018-06-08T13:11:45.420Z,101171.03
2018-06-08T13:14:14.037Z,101175.39
2018-06-08T13:16:42.646Z,101174.88
2018-06-08T13:19:11.259Z,101179.66
2018-06-08T13:21:39.774Z,101186.03
2018-06-08T13:24:08.316Z,101181.77
2018-06-08T13:26:37.521Z,101188.67
2018-06-08T13:29:06.272Z,101180.25
2018-06-08T13:31:34.964Z,101181.34
2018-06-08T13:34:03.607Z,101176.94
2018-06-08T13:36:32.417Z,101175.10
2018-06-08T13:39:00.967Z,101175.98
2018-06-08T13:41:29.373Z,101169.89
2018-06-08T13:43:57.921Z,101161.48
2018-06-08T13:46:42.225Z,101168.07
2018-06-08T13:49:11.018Z,101162.39
2018-06-08T13:51:39.979Z,101158.58
2018-06-08T13:54:08.622Z,101160.13
2018-06-08T13:56:37.076Z,101153.52
2018-06-08T13:59:06.031Z,101156.27
2018-06-08T14:01:34.718Z,101149.06
2018-06-08T14:04:03.266Z,101153.50
2018-06-08T14:06:31.843Z,101156.95
2018-06-08T14:09:00.500Z,101146.03
2018-06-08T14:11:28.938Z,101157.09
2018-06-08T14:13:57.255Z,101148.98
2018-06-08T14:16:25.728Z,101151.84
2018-06-08T14:18:54.305Z,101143.67
2018-06-08T14:21:22.882Z,101139.05
2018-06-08T14:23:51.600Z,101145.64
2018-06-08T14:26:20.263Z,101147.52
2018-06-08T14:28:49.095Z,101142.02
2018-06-08T14:31:17.700Z,101138.61
2018-06-08T14:33:46.248Z,101138.89
2018-06-08T14:36:14.978Z,101143.67
2018-06-08T14:38:43.401Z,101129.86
2018-06-08T14:41:11.832Z,101132.16
2018-06-08T14:43:40.238Z,101134.81
2018-06-08T14:46:08.794Z,101130.39
2018-06-08T14:48:37.379Z,101133.50
2018-06-08T14:51:06.255Z,101136.23
2018-06-08T14:53:35.094Z,101140.66
2018-06-08T14:56:03.808Z,101134.23
2018-06-08T14:58:32.623Z,101133.70
2018-06-08T15:01:01.291Z,101134.38
2018-06-08T15:03:30.054Z,101130.77
2018-06-08T15:05:58.656Z,101136.54
2018-06-08T15:08:27.193Z,101128.05
2018-06-08T15:10:55.831Z,101130.84
2018-06-08T15:13:24.397Z,101124.28
2018-06-08T15:15:53.375Z,101125.47
2018-06-08T15:18:22.013Z,101124.65
2018-06-08T15:20:50.475Z,101115.94
2018-06-08T15:23:18.958Z,101121.43
2018-06-08T15:25:47.394Z,101122.63
2018-06-08T15:28:15.866Z,101123.56
2018-06-08T15:30:44.488Z,101114.86
2018-06-08T15:33:13.256Z,101115.86
2018-06-08T15:35:42.029Z,101115.06
2018-06-08T15:38:11.142Z,101114.77
2018-06-08T15:40:39.669Z,101115.78
2018-06-08T15:43:08.399Z,101116.20
2018-06-08T15:45:37.059Z,101107.97
2018-06-08T15:48:05.571Z,101103.27
2018-06-08T15:50:34.400Z,101103.78
2018-06-08T15:53:03.128Z,101099.22
2018-06-08T15:55:31.768Z,101100.05
2018-06-08T15:58:00.516Z,101101.44
2018-06-08T16:00:28.994Z,101097.10
2018-06-08T16:02:57.337Z,101091.41
2018-06-08T16:05:26.061Z,101090.75
2018-06-08T16:07:54.683Z,101083.36
2018-06-08T16:10:23.509Z,101086.43
2018-06-08T16:12:52.141Z,101079.69
2018-06-08T16:15:20.976Z,101083.02
2018-06-08T16:17:49.366Z,101079.32
2018-06-08T16:20:18.041Z,101082.41
2018-06-08T16:22:46.674Z,101079.24
2018-06-08T16:25:15.228Z,101074.20
2018-06-08T16:27:43.853Z,101084.08
2018-06-08T16:30:12.804Z,101073.65
2018-06-08T16:32:41.419Z,101066.72
2018-06-08T16:35:09.958Z,101064.23
2018-06-08T16:37:38.495Z,101068.50
2018-06-08T16:40:07.013Z,101062.52
2018-06-08T16:42:35.784Z,101061.59
2018-06-08T16:45:04.345Z,101057.97
2018-06-08T16:47:33.074Z,101061.34
2018-06-08T16:50:01.987Z,101054.77
2018-06-08T16:52:30.577Z,101060.17
2018-06-08T16:54:59.428Z,101051.14
2018-06-08T16:57:27.985Z,101053.13
2018-06-08T16:59:56.564Z,101051.28
2018-06-08T17:02:25.217Z,101053.98
2018-06-08T17:04:54.330Z,101058.81
2018-06-08T17:07:22.667Z,101065.56
2018-06-08T17:09:51.292Z,101071.21
2018-06-08T17:12:19.791Z,101074.92
2018-06-08T17:14:48.277Z,101075.44
2018-06-08T17:17:16.803Z,101070.39
2018-06-08T17:19:46.056Z,101069.53
2018-06-08T17:22:14.958Z,101075.06
2018-06-08T17:24:43.576Z,101083.23
2018-06-08T17:27:12.402Z,101083.20
2018-06-08T17:29:41.006Z,101083.30
2018-06-08T17:32:09.590Z,101088.42
2018-06-08T17:34:38.113Z,101094.55
2018-06-08T17:37:06.978Z,101093.58
2018-06-08T17:39:35.605Z,101096.98
2018-06-08T17:42:04.773Z,101088.30
2018-06-08T17:44:33.401Z,101090.05
2018-06-08T17:47:02.419Z,101091.97
2018-06-08T17:49:30.811Z,101100.44
2018-06-08T17:51:59.385Z,101103.59
2018-06-08T17:54:28.241Z,101105.70
2018-06-08T17:56:57.067Z,101105.78
2018-06-08T17:59:25.504Z,101108.22
2018-06-08T18:01:54.351Z,101104.19
2018-06-08T18:04:23.111Z,101101.41
2018-06-08T18:06:51.465Z,101101.17
2018-06-08T18:09:20.065Z,101103.98
2018-06-08T18:11:48.557Z,101110.88
2018-06-08T18:14:17.188Z,101107.84
2018-06-08T18:16:45.773Z,101116.06
2018-06-08T18:19:14.621Z,101114.27
2018-06-08T18:21:43.462Z,101108.77
2018-06-08T18:24:11.889Z,101110.48
2018-06-08T18:26:40.332Z,101115.20
2018-06-08T18:29:09.263Z,101115.83
2018-06-08T18:31:37.616Z,101112.58
2018-06-08T18:34:06.426Z,101116.62
2018-06-08T18:36:34.973Z,101113.84
2018-06-08T18:39:05.844Z,101119.59
2018-06-08T18:41:34.735Z,101119.48
2018-06-08T18:44:03.241Z,101119.77
2018-06-08T18:46:31.878Z,101115.03
2018-06-08T18:49:00.724Z,101116.16
2018-06-08T18:51:29.239Z,101118.45
2018-06-08T18:53:57.885Z,101110.23
2018-06-08T18:56:27.171Z,101117.53
2018-06-08T18:58:55.596Z,101115.02
2018-06-08T19:01:24.234Z,101114.75
2018-06-08T19:03:52.752Z,101116.75
2018-06-08T19:06:21.561Z,101112.39
2018-06-08T19:08:50.162Z,101110.65
2018-06-08T19:11:18.772Z,101110.11
2018-06-08T19:13:47.372Z,101115.55
2018-06-08T19:16:16.140Z,101108.83
2018-06-08T19:18:44.889Z,101114.19
2018-06-08T19:21:13.408Z,101107.27
2018-06-08T19:23:42.100Z,101108.63
2018-06-08T19:26:10.669Z,101113.55
2018-06-08T19:28:39.424Z,101108.55
2018-06-08T19:31:08.122Z,101103.12
2018-06-08T19:33:36.651Z,101105.76
2018-06-08T19:36:05.337Z,101105.04
2018-06-08T19:38:33.610Z,101103.80
2018-06-08T19:41:01.949Z,101107.39
2018-06-08T19:43:30.757Z,101101.16
2018-06-08T19:45:59.281Z,101095.85
2018-06-08T19:48:27.989Z,101098.77
2018-06-08T19:50:56.538Z,101094.21
2018-06-08T19:53:25.079Z,101093.89
2018-06-08T19:55:53.931Z,101095.84
2018-06-08T19:58:22.491Z,101097.55
2018-06-08T20:00:51.058Z,101099.23
2018-06-08T20:03:19.595Z,101098.58
2018-06-08T20:05:48.126Z,101100.73
2018-06-08T20:08:17.040Z,101107.52
2018-06-08T20:10:45.552Z,101120.06
2018-06-08T20:13:14.066Z,101121.97
2018-06-08T20:15:42.647Z,101121.09
2018-06-08T20:18:11.183Z,101127.31
2018-06-08T20:20:40.033Z,101123.19
2018-06-08T20:23:08.754Z,101122.54
2018-06-08T20:25:37.380Z,101124.95
2018-06-08T20:28:05.943Z,101125.48
2018-06-08T20:30:34.549Z,101127.97
2018-06-08T20:33:03.344Z,101131.83
2018-06-08T20:35:31.744Z,101128.37
2018-06-08T20:38:00.519Z,101139.70
2018-06-08T20:40:29.237Z,101134.12
2018-06-08T20:42:57.866Z,101137.91
2018-06-08T20:45:26.437Z,101128.55
2018-06-08T20:47:54.961Z,101129.99
2018-06-08T20:50:23.557Z,101130.77
2018-06-08T20:52:52.196Z,101130.30
2018-06-08T20:55:20.912Z,101131.70
2018-06-08T20:58:00.741Z,101136.37
2018-06-08T21:00:29.653Z,101144.56
2018-06-08T21:02:58.212Z,101141.58
2018-06-08T21:05:26.799Z,101143.73
2018-06-08T21:07:55.208Z,101142.88
2018-06-08T21:10:24.200Z,101146.36
2018-06-08T21:12:52.761Z,101144.21
2018-06-08T21:15:21.312Z,101142.32
2018-06-08T21:17:49.860Z,101137.63
2018-06-08T21:20:18.210Z,101139.22
2018-06-08T21:22:46.839Z,101145.55
2018-06-08T21:25:15.638Z,101150.91
2018-06-08T21:27:44.406Z,101149.16
2018-06-08T21:30:13.049Z,101139.87
2018-06-08T21:32:41.658Z,101144.82
2018-06-08T21:35:10.234Z,101148.39
2018-06-08T21:37:38.826Z,101150.55
2018-06-08T21:40:07.418Z,101153.08
2018-06-08T21:42:35.848Z,101142.74
2018-06-08T21:45:04.446Z,101149.28
2018-06-08T21:47:33.016Z,101147.22
2018-06-08T21:50:01.938Z,101147.92
2018-06-08T21:52:30.462Z,101147.62
2018-06-08T21:54:59.048Z,101146.44
2018-06-08T21:57:27.839Z,101144.34
2018-06-08T21:59:56.227Z,101134.25
2018-06-08T22:02:24.819Z,101140.42
2018-06-08T22:04:53.445Z,101136.50
2018-06-08T22:07:22.321Z,101137.97
2018-06-08T22:09:50.874Z,101135.66
2018-06-08T22:12:19.517Z,101135.41
2018-06-08T22:14:48.100Z,101129.53
2018-06-08T22:17:17.173Z,101138.14
2018-06-08T22:19:45.754Z,101134.86
2018-06-08T22:22:14.604Z,101136.52
2018-06-08T22:24:43.230Z,101137.67
2018-06-08T22:27:12.229Z,101134.75
2018-06-08T22:29:40.649Z,101138.82
2018-06-08T22:32:09.017Z,101137.93
2018-06-08T22:34:37.681Z,101136.62
2018-06-08T22:37:06.357Z,101129.14
2018-06-08T22:39:34.872Z,101123.48
2018-06-08T22:42:03.609Z,101119.20
2018-06-08T22:44:32.319Z,101119.02
2018-06-08T22:47:01.081Z,101119.95
2018-06-08T22:49:29.831Z,101117.70
2018-06-08T22:51:58.228Z,101124.13
2018-06-08T22:54:26.716Z,101118.57
2018-06-08T22:56:55.433Z,101114.90
2018-06-08T22:59:23.913Z,101116.83
2018-06-08T23:01:52.494Z,101112.54
2018-06-08T23:04:21.013Z,101112.22
2018-06-08T23:06:49.456Z,101107.49
2018-06-08T23:09:17.970Z,101111.41
2018-06-08T23:11:46.538Z,101111.98
2018-06-08T23:14:15.068Z,101116.62
2018-06-08T23:16:43.554Z,101113.88
2018-06-08T23:19:12.226Z,101114.44
2018-06-08T23:21:41.161Z,101121.21
2018-06-08T23:24:09.764Z,101121.14
2018-06-08T23:26:38.300Z,101111.27
2018-06-08T23:29:06.845Z,101116.61
2018-06-08T23:31:35.644Z,101116.69
2018-06-08T23:34:04.573Z,101113.02
2018-06-08T23:36:33.153Z,101111.82
2018-06-08T23:39:01.712Z,101111.51
2018-06-08T23:41:30.399Z,101111.06
2018-06-08T23:43:58.866Z,101113.72
2018-06-08T23:46:27.475Z,101108.52
2018-06-08T23:48:55.971Z,101110.31
2018-06-08T23:51:25.008Z,101113.73
2018-06-08T23:53:54.015Z,101111.31
2018-06-08T23:56:23.222Z,101115.82
2018-06-08T23:58:51.933Z,101110.27
